createdAt,value
2022-10-12T00:01:10.660Z,73.23
2022-10-12T00:03:39.740Z,73.30
2022-10-12T00:06:11.143Z,74.53
2022-10-12T00:08:41.261Z,71.90
2022-10-12T00:11:12.518Z,67.93
2022-10-12T00:13:42.663Z,64.53
2022-10-12T00:16:12.818Z,67.77
2022-10-12T00:18:41.407Z,66.57
2022-10-12T00:21:12.913Z,68.47
2022-10-12T00:23:42.281Z,70.93
2022-10-12T00:26:13.087Z,68.33
2022-10-12T00:28:43.610Z,68.90
2022-10-12T00:31:14.298Z,65.13
2022-10-12T00:33:43.186Z,63.40
2022-10-12T00:36:19.853Z,57.83
2022-10-12T00:38:49.010Z,56.93
2022-10-12T00:41:19.438Z,52.73
2022-10-12T00:43:53.981Z,51.30
2022-10-12T00:46:34.196Z,49.03
2022-10-12T00:49:15.690Z,46.97
2022-10-12T00:51:47.778Z,44.70
2022-10-12T00:54:20.872Z,46.50
2022-10-12T00:56:52.007Z,47.80
2022-10-12T00:59:24.606Z,49.03
2022-10-12T01:01:53.280Z,43.57
2022-10-12T01:04:22.483Z,43.93
2022-10-12T01:06:51.168Z,44.10
2022-10-12T01:09:20.127Z,37.97
2022-10-12T01:11:48.768Z,42.53
2022-10-12T01:14:18.264Z,42.37
2022-10-12T01:16:54.906Z,45.53
2022-10-12T01:19:43.161Z,45.40
2022-10-12T01:22:16.747Z,45.10
2022-10-12T01:24:53.048Z,46.27
2022-10-12T01:27:45.756Z,47.33
2022-10-12T01:30:23.795Z,46.53
2022-10-12T01:33:09.601Z,46.00
2022-10-12T01:35:44.681Z,46.87
2022-10-12T01:38:28.703Z,46.67
2022-10-12T01:41:03.202Z,49.53
2022-10-12T01:43:37.973Z,47.80
2022-10-12T01:46:24.107Z,47.63
2022-10-12T01:48:55.444Z,48.07
2022-10-12T01:51:32.540Z,48.87
2022-10-12T01:54:08.450Z,48.73
2022-10-12T01:56:43.257Z,46.80
2022-10-12T01:59:19.308Z,49.50
2022-10-12T02:01:56.063Z,52.27
2022-10-12T02:04:29.767Z,53.17
2022-10-12T02:07:03.493Z,55.70
2022-10-12T02:09:34.813Z,53.63
2022-10-12T02:12:09.018Z,51.90
2022-10-12T02:14:41.721Z,54.47
2022-10-12T02:17:16.199Z,60.63
2022-10-12T02:19:48.539Z,60.90
2022-10-12T02:22:18.199Z,60.10
2022-10-12T02:24:50.215Z,60.60
2022-10-12T02:27:21.478Z,62.80
2022-10-12T02:29:50.552Z,59.77
2022-10-12T02:32:23.188Z,57.13
2022-10-12T02:34:56.657Z,58.90
2022-10-12T02:37:33.213Z,60.20
2022-10-12T02:40:08.170Z,62.07
2022-10-12T02:43:08.394Z,61.33
2022-10-12T02:45:31.241Z,65.13
2022-10-12T02:48:02.043Z,67.73
2022-10-12T02:50:32.078Z,66.50
2022-10-12T02:53:00.970Z,67.10
2022-10-12T02:55:31.284Z,68.57
2022-10-12T02:57:59.769Z,77.20
2022-10-12T03:00:28.105Z,69.37
2022-10-12T03:02:56.818Z,67.63
2022-10-12T03:05:26.554Z,66.27
2022-10-12T03:07:54.844Z,68.77
2022-10-12T03:10:23.065Z,69.73
2022-10-12T03:12:51.659Z,71.50
2022-10-12T03:15:19.981Z,69.17
2022-10-12T03:17:48.197Z,68.13
2022-10-12T03:20:17.010Z,73.77
2022-10-12T03:22:46.623Z,71.30
2022-10-12T03:25:15.016Z,70.90
2022-10-12T03:27:43.438Z,73.13
2022-10-12T03:30:12.551Z,75.57
2022-10-12T03:32:40.871Z,72.03
2022-10-12T03:35:10.345Z,78.00
2022-10-12T03:37:39.225Z,73.87
2022-10-12T03:40:11.411Z,76.67
2022-10-12T03:42:39.853Z,78.07
2022-10-12T03:45:09.527Z,77.43
2022-10-12T03:47:38.262Z,77.07
2022-10-12T03:50:07.896Z,77.07
2022-10-12T03:52:36.127Z,76.60
2022-10-12T03:55:05.355Z,79.07
2022-10-12T03:57:35.145Z,83.00
2022-10-12T04:00:03.838Z,74.17
2022-10-12T04:02:39.935Z,72.87
2022-10-12T04:05:09.050Z,76.20
2022-10-12T04:07:37.626Z,71.07
2022-10-12T04:10:07.613Z,74.97
2022-10-12T04:12:37.550Z,78.43
2022-10-12T04:15:06.633Z,78.87
2022-10-12T04:17:34.847Z,76.10
2022-10-12T04:20:03.228Z,77.23
2022-10-12T04:22:31.974Z,76.87
2022-10-12T04:25:00.311Z,75.40
2022-10-12T04:27:28.893Z,77.27
2022-10-12T04:29:58.514Z,76.70
2022-10-12T04:32:27.133Z,77.27
2022-10-12T04:34:55.687Z,80.40
2022-10-12T04:37:23.935Z,80.50
2022-10-12T04:39:52.800Z,79.50
2022-10-12T04:42:21.018Z,80.03
2022-10-12T04:44:49.407Z,82.70
2022-10-12T04:47:19.086Z,87.57
2022-10-12T04:49:47.458Z,83.10
2022-10-12T04:52:15.730Z,81.93
2022-10-12T04:54:44.278Z,81.30
2022-10-12T04:57:12.455Z,80.27
2022-10-12T04:59:40.854Z,81.93
2022-10-12T05:02:09.010Z,80.90
2022-10-12T05:04:38.649Z,82.73
2022-10-12T05:07:07.514Z,81.13
2022-10-12T05:09:35.673Z,80.63
2022-10-12T05:12:04.062Z,78.40
2022-10-12T05:14:35.790Z,79.33
2022-10-12T05:17:04.769Z,77.43
2022-10-12T05:19:33.373Z,76.27
2022-10-12T05:22:03.389Z,75.70
2022-10-12T05:24:31.571Z,74.30
2022-10-12T05:27:00.085Z,74.30
2022-10-12T05:29:28.489Z,75.37
2022-10-12T05:31:57.032Z,75.70
2022-10-12T05:34:25.295Z,77.43
2022-10-12T05:36:54.483Z,77.60
2022-10-12T05:39:24.047Z,76.57
2022-10-12T05:41:54.299Z,75.43
2022-10-12T05:44:22.593Z,78.87
2022-10-12T05:46:51.319Z,76.83
2022-10-12T05:49:19.532Z,74.73
2022-10-12T05:51:48.353Z,76.10
2022-10-12T05:54:16.559Z,77.53
2022-10-12T05:56:46.504Z,78.33
2022-10-12T05:59:14.866Z,78.77
2022-10-12T06:01:43.370Z,86.57
2022-10-12T06:04:13.017Z,79.47
2022-10-12T06:06:42.247Z,77.33
2022-10-12T06:09:12.450Z,83.00
2022-10-12T06:11:40.875Z,82.53
2022-10-12T06:14:10.475Z,77.40
2022-10-12T06:16:39.059Z,80.40
2022-10-12T06:19:07.292Z,80.03
2022-10-12T06:21:35.668Z,78.53
2022-10-12T06:24:05.105Z,81.03
2022-10-12T06:26:33.753Z,78.53
2022-10-12T06:29:02.068Z,92.07
2022-10-12T06:31:33.887Z,81.87
2022-10-12T06:34:02.264Z,80.53
2022-10-12T06:36:31.046Z,80.47
2022-10-12T06:38:59.273Z,86.23
2022-10-12T06:41:27.777Z,83.23
2022-10-12T06:43:55.973Z,80.13
2022-10-12T06:46:25.046Z,81.17
2022-10-12T06:48:54.677Z,89.13
2022-10-12T06:51:23.097Z,80.17
2022-10-12T06:53:51.298Z,76.70
2022-10-12T06:56:19.785Z,74.90
2022-10-12T06:58:48.311Z,77.37
2022-10-12T07:01:16.927Z,76.00
2022-10-12T07:03:45.158Z,76.60
2022-10-12T07:06:16.100Z,69.03
2022-10-12T07:08:44.756Z,69.90
2022-10-12T07:11:15.046Z,63.13
2022-10-12T07:13:43.239Z,61.43
2022-10-12T07:16:12.047Z,57.20
2022-10-12T07:18:41.094Z,59.30
2022-10-12T07:21:09.579Z,56.60
2022-10-12T07:23:45.040Z,51.93
2022-10-12T07:26:14.698Z,48.37
2022-10-12T07:28:43.127Z,44.10
2022-10-12T07:31:12.210Z,44.13
2022-10-12T07:33:40.425Z,40.60
2022-10-12T07:36:14.255Z,37.30
2022-10-12T07:38:45.723Z,38.17
2022-10-12T07:41:14.726Z,36.80
2022-10-12T07:43:43.859Z,38.07
2022-10-12T07:46:13.418Z,35.50
2022-10-12T07:48:45.908Z,31.90
2022-10-12T07:51:16.079Z,32.10
2022-10-12T07:53:45.692Z,31.43
2022-10-12T07:56:16.108Z,28.87
2022-10-12T07:58:48.621Z,28.33
2022-10-12T08:01:18.723Z,30.53
2022-10-12T08:03:47.494Z,28.30
2022-10-12T08:06:18.184Z,29.60
2022-10-12T08:08:48.334Z,28.30
2022-10-12T08:11:17.597Z,28.87
2022-10-12T08:13:46.669Z,28.53
2022-10-12T08:16:17.553Z,28.50
2022-10-12T08:18:46.518Z,28.17
2022-10-12T08:21:17.325Z,28.70
2022-10-12T08:23:48.056Z,25.90
2022-10-12T08:26:17.327Z,24.73
2022-10-12T08:28:45.935Z,25.50
2022-10-12T08:31:16.536Z,23.63
2022-10-12T08:33:45.115Z,24.87
2022-10-12T08:36:14.583Z,25.03
2022-10-12T08:38:44.412Z,23.83
2022-10-12T08:41:27.275Z,23.93
2022-10-12T08:44:13.613Z,23.63
2022-10-12T08:46:42.760Z,21.90
2022-10-12T08:49:15.693Z,23.33
2022-10-12T08:51:49.149Z,19.90
2022-10-12T08:54:21.093Z,20.27
2022-10-12T08:56:55.273Z,19.30
2022-10-12T08:59:23.883Z,22.00
2022-10-12T09:02:02.994Z,18.87
2022-10-12T09:04:45.933Z,18.27
2022-10-12T09:07:18.982Z,19.20
2022-10-12T09:09:58.399Z,18.67
2022-10-12T09:12:39.065Z,20.13
2022-10-12T09:15:14.403Z,18.63
2022-10-12T09:17:47.349Z,18.67
2022-10-12T09:20:19.706Z,18.50
2022-10-12T09:22:51.899Z,17.83
2022-10-12T09:25:24.611Z,18.00
2022-10-12T09:27:55.760Z,16.80
2022-10-12T09:30:23.956Z,16.43
2022-10-12T09:33:15.787Z,17.20
2022-10-12T09:35:45.907Z,17.27
2022-10-12T09:38:15.308Z,16.37
2022-10-12T09:40:43.721Z,16.10
2022-10-12T09:43:16.170Z,14.57
2022-10-12T09:45:45.150Z,14.77
2022-10-12T09:48:20.278Z,12.03
2022-10-12T09:50:54.836Z,9.87
2022-10-12T09:53:28.358Z,12.10
2022-10-12T09:56:04.269Z,9.80
2022-10-12T09:58:40.915Z,12.70
2022-10-12T10:01:21.462Z,9.80
2022-10-12T10:03:53.020Z,12.40
2022-10-12T10:06:25.628Z,9.53
2022-10-12T10:08:55.116Z,7.63
2022-10-12T10:11:28.394Z,9.53
2022-10-12T10:13:59.662Z,7.70
2022-10-12T10:16:29.332Z,10.10
2022-10-12T10:18:59.384Z,10.93
2022-10-12T10:21:31.333Z,9.67
2022-10-12T10:24:02.308Z,9.53
2022-10-12T10:26:51.221Z,9.03
2022-10-12T10:29:35.719Z,7.83
2022-10-12T10:32:24.134Z,7.03
2022-10-12T10:35:03.899Z,7.57
2022-10-12T10:37:32.846Z,6.13
2022-10-12T10:40:02.608Z,5.30
2022-10-12T10:42:33.160Z,5.83
2022-10-12T10:45:07.053Z,9.52
2022-10-12T10:47:42.909Z,5.85
2022-10-12T10:50:26.933Z,5.73
2022-10-12T10:52:58.245Z,4.60
2022-10-12T10:55:46.751Z,6.13
2022-10-12T10:58:25.677Z,6.22
2022-10-12T11:01:00.954Z,5.05
2022-10-12T11:03:33.100Z,5.65
2022-10-12T11:06:13.974Z,6.55
2022-10-12T11:08:45.821Z,6.22
2022-10-12T11:11:17.429Z,7.60
2022-10-12T11:13:49.992Z,6.05
2022-10-12T11:16:28.790Z,5.18
2022-10-12T11:19:01.757Z,4.63
2022-10-12T11:21:36.442Z,9.38
2022-10-12T11:24:13.534Z,6.63
2022-10-12T11:26:49.293Z,4.22
2022-10-12T11:29:21.033Z,5.57
2022-10-12T11:31:55.070Z,5.40
2022-10-12T11:34:27.219Z,6.43
2022-10-12T11:37:21.294Z,6.10
2022-10-12T11:39:49.987Z,5.43
2022-10-12T11:42:29.443Z,5.95
2022-10-12T11:45:00.316Z,9.93
2022-10-12T11:47:37.126Z,4.68
2022-10-12T11:50:08.439Z,3.97
2022-10-12T11:52:43.385Z,4.47
2022-10-12T11:55:33.349Z,4.07
2022-10-12T11:58:13.457Z,3.60
2022-10-12T12:00:56.386Z,4.00
2022-10-12T12:03:31.891Z,4.10
2022-10-12T12:06:43.310Z,4.88
2022-10-12T12:09:23.124Z,4.40
2022-10-12T12:11:51.369Z,4.00
2022-10-12T12:14:46.063Z,3.50
2022-10-12T12:17:29.326Z,4.65
2022-10-12T12:20:02.869Z,4.72
2022-10-12T12:22:52.108Z,3.55
2022-10-12T12:25:32.401Z,3.75
2022-10-12T12:28:07.206Z,3.75
2022-10-12T12:30:38.917Z,3.45
2022-10-12T12:33:28.896Z,3.22
2022-10-12T12:36:01.115Z,8.25
2022-10-12T12:38:32.460Z,4.03
2022-10-12T12:41:04.650Z,5.63
2022-10-12T12:44:04.183Z,4.10
2022-10-12T12:47:39.773Z,3.72
2022-10-12T12:50:00.863Z,6.10
2022-10-12T12:52:34.653Z,5.72
2022-10-12T12:55:36.650Z,9.50
2022-10-12T12:58:25.738Z,4.78
2022-10-12T13:01:09.057Z,8.88
2022-10-12T13:03:55.717Z,6.07
2022-10-12T13:06:57.253Z,4.55
2022-10-12T13:09:51.852Z,3.20
2022-10-12T13:12:41.150Z,2.53
2022-10-12T13:15:30.975Z,2.85
2022-10-12T13:18:28.371Z,3.55
2022-10-12T13:21:01.957Z,3.40
2022-10-12T13:23:30.204Z,3.60
2022-10-12T13:26:04.146Z,5.25
2022-10-12T13:28:36.988Z,6.95
2022-10-12T13:31:09.961Z,5.07
2022-10-12T13:33:45.438Z,5.45
2022-10-12T13:36:21.443Z,5.80
2022-10-12T13:38:55.310Z,5.00
2022-10-12T13:41:26.669Z,6.32
2022-10-12T13:43:57.893Z,5.22
2022-10-12T13:46:40.460Z,4.55
2022-10-12T13:49:15.778Z,3.45
2022-10-12T13:51:46.415Z,4.18
2022-10-12T13:54:19.254Z,4.05
2022-10-12T13:56:51.398Z,3.45
2022-10-12T13:59:23.012Z,3.70
2022-10-12T14:01:57.101Z,7.85
2022-10-12T14:04:29.286Z,10.85
2022-10-12T14:07:02.168Z,9.63
2022-10-12T14:09:37.518Z,11.50
2022-10-12T14:12:08.432Z,9.82
2022-10-12T14:14:38.335Z,7.10
2022-10-12T14:17:06.911Z,10.55
2022-10-12T14:19:45.772Z,6.82
2022-10-12T14:22:19.762Z,6.95
2022-10-12T14:24:48.791Z,8.45
2022-10-12T14:27:25.984Z,5.88
2022-10-12T14:29:58.514Z,5.68
2022-10-12T14:32:48.887Z,4.05
2022-10-12T14:35:28.730Z,3.95
2022-10-12T14:37:59.153Z,4.35
2022-10-12T14:40:34.731Z,9.40
2022-10-12T14:43:09.473Z,19.48
2022-10-12T14:45:37.768Z,13.60
2022-10-12T14:48:13.800Z,7.50
2022-10-12T14:50:42.028Z,6.18
2022-10-12T14:53:13.790Z,8.48
2022-10-12T14:55:42.751Z,6.30
2022-10-12T14:58:16.549Z,7.43
2022-10-12T15:00:45.311Z,9.15
2022-10-12T15:03:13.806Z,8.45
2022-10-12T15:05:42.023Z,6.22
2022-10-12T15:08:10.750Z,5.15
2022-10-12T15:10:39.172Z,5.68
2022-10-12T15:13:08.118Z,5.20
2022-10-12T15:15:42.264Z,5.95
2022-10-12T15:18:12.388Z,7.15
2022-10-12T15:20:45.391Z,6.28
2022-10-12T15:23:16.818Z,6.95
2022-10-12T15:25:50.519Z,6.70
2022-10-12T15:28:19.492Z,6.38
2022-10-12T15:31:12.193Z,6.38
2022-10-12T15:33:37.578Z,4.88
2022-10-12T15:36:05.979Z,5.07
2022-10-12T15:38:34.413Z,4.85
2022-10-12T15:41:02.828Z,5.65
2022-10-12T15:43:31.585Z,5.10
2022-10-12T15:46:16.042Z,5.13
2022-10-12T15:48:44.444Z,5.93
2022-10-12T15:51:18.546Z,5.75
2022-10-12T15:53:47.146Z,5.50
2022-10-12T15:56:16.516Z,5.70
2022-10-12T15:58:45.845Z,7.85
2022-10-12T16:01:17.430Z,7.07
2022-10-12T16:03:46.658Z,7.57
2022-10-12T16:06:14.995Z,8.45
2022-10-12T16:08:43.806Z,8.68
2022-10-12T16:11:14.975Z,7.45
2022-10-12T16:13:48.967Z,8.77
2022-10-12T16:16:22.071Z,9.55
2022-10-12T16:18:51.480Z,7.97
2022-10-12T16:21:19.849Z,7.68
2022-10-12T16:23:48.124Z,6.35
2022-10-12T16:26:16.878Z,5.80
2022-10-12T16:28:45.099Z,5.13
2022-10-12T16:31:17.543Z,5.70
2022-10-12T16:33:47.623Z,6.63
2022-10-12T16:36:17.483Z,5.07
2022-10-12T16:38:46.134Z,6.07
2022-10-12T16:41:16.915Z,7.75
2022-10-12T16:43:45.618Z,6.45
2022-10-12T16:46:14.132Z,5.55
2022-10-12T16:48:42.335Z,6.30
2022-10-12T16:51:14.058Z,13.98
2022-10-12T16:53:42.670Z,12.90
2022-10-12T16:56:11.795Z,10.43
2022-10-12T16:58:40.106Z,11.45
2022-10-12T17:01:10.188Z,11.13
2022-10-12T17:03:38.695Z,13.95
2022-10-12T17:06:07.979Z,10.23
2022-10-12T17:08:39.282Z,7.63
2022-10-12T17:11:09.587Z,7.95
2022-10-12T17:13:38.743Z,6.80
2022-10-12T17:16:34.897Z,7.03
2022-10-12T17:19:03.391Z,7.53
2022-10-12T17:21:31.971Z,6.78
2022-10-12T17:24:02.985Z,6.75
2022-10-12T17:26:31.904Z,7.30
2022-10-12T17:29:00.604Z,6.25
2022-10-12T17:31:29.008Z,6.90
2022-10-12T17:33:58.464Z,7.65
2022-10-12T17:36:28.535Z,7.93
2022-10-12T17:38:58.957Z,6.85
2022-10-12T17:41:29.906Z,6.35
2022-10-12T17:43:58.999Z,6.93
2022-10-12T17:46:28.106Z,6.57
2022-10-12T17:48:57.322Z,6.82
2022-10-12T17:51:26.225Z,5.90
2022-10-12T17:53:54.596Z,6.32
2022-10-12T17:56:23.714Z,5.93
2022-10-12T17:58:56.047Z,6.18
2022-10-12T18:01:25.548Z,6.85
2022-10-12T18:03:55.387Z,6.03
2022-10-12T18:06:25.512Z,6.80
2022-10-12T18:08:55.040Z,6.07
2022-10-12T18:11:23.670Z,7.10
2022-10-12T18:13:53.762Z,7.73
2022-10-12T18:16:29.632Z,9.30
2022-10-12T18:18:59.987Z,9.40
2022-10-12T18:21:30.343Z,11.27
2022-10-12T18:24:04.908Z,11.10
2022-10-12T18:26:35.598Z,9.13
2022-10-12T18:29:05.174Z,9.53
2022-10-12T18:31:35.101Z,7.60
2022-10-12T18:34:04.236Z,6.53
2022-10-12T18:36:32.738Z,7.47
2022-10-12T18:39:01.768Z,7.63
2022-10-12T18:41:31.251Z,6.50
2022-10-12T18:44:01.263Z,6.13
2022-10-12T18:46:32.500Z,7.53
2022-10-12T18:49:06.871Z,6.32
2022-10-12T18:51:37.706Z,6.33
2022-10-12T18:54:07.004Z,6.30
2022-10-12T18:56:37.848Z,6.47
2022-10-12T18:59:06.947Z,5.70
2022-10-12T19:01:35.886Z,7.10
2022-10-12T19:04:06.785Z,5.87
2022-10-12T19:06:41.453Z,6.10
2022-10-12T19:09:12.440Z,6.20
2022-10-12T19:11:41.277Z,7.17
2022-10-12T19:14:13.693Z,6.77
2022-10-12T19:16:43.267Z,5.90
2022-10-12T19:19:20.844Z,6.03
2022-10-12T19:21:50.988Z,6.50
2022-10-12T19:24:20.020Z,6.53
2022-10-12T19:26:49.396Z,6.03
2022-10-12T19:29:17.643Z,6.33
2022-10-12T19:31:48.412Z,6.23
2022-10-12T19:34:19.463Z,5.23
2022-10-12T19:36:48.501Z,6.60
2022-10-12T19:39:19.575Z,6.50
2022-10-12T19:41:49.203Z,6.47
2022-10-12T19:44:19.257Z,7.17
2022-10-12T19:46:49.488Z,7.23
2022-10-12T19:49:20.370Z,6.97
2022-10-12T19:51:49.123Z,7.30
2022-10-12T19:54:17.550Z,6.77
2022-10-12T19:56:49.884Z,7.33
2022-10-12T19:59:18.235Z,7.93
2022-10-12T20:01:48.237Z,7.43
2022-10-12T20:04:17.655Z,8.07
2022-10-12T20:06:47.529Z,7.93
2022-10-12T20:09:16.063Z,9.67
2022-10-12T20:11:44.381Z,9.63
2022-10-12T20:14:13.202Z,9.33
2022-10-12T20:16:41.670Z,9.10
2022-10-12T20:19:10.187Z,9.27
2022-10-12T20:21:38.723Z,12.13
2022-10-12T20:24:10.824Z,10.63
2022-10-12T20:26:39.869Z,10.90
2022-10-12T20:29:08.187Z,12.67
2022-10-12T20:31:36.958Z,17.77
2022-10-12T20:34:05.491Z,17.23
2022-10-12T20:36:33.692Z,13.30
2022-10-12T20:39:02.352Z,11.80
2022-10-12T20:41:34.336Z,11.97
2022-10-12T20:44:03.215Z,12.27
2022-10-12T20:46:31.543Z,12.83
2022-10-12T20:49:03.213Z,12.53
2022-10-12T20:51:34.044Z,13.73
2022-10-12T20:54:02.997Z,12.93
2022-10-12T20:56:34.520Z,13.60
2022-10-12T20:59:03.355Z,14.40
2022-10-12T21:01:31.829Z,13.90
2022-10-12T21:04:00.561Z,15.67
2022-10-12T21:06:29.178Z,16.37
2022-10-12T21:08:58.667Z,15.00
2022-10-12T21:11:29.325Z,15.50
2022-10-12T21:13:59.100Z,15.53
2022-10-12T21:16:27.987Z,16.27
2022-10-12T21:18:56.656Z,17.27
2022-10-12T21:21:25.208Z,16.87
2022-10-12T21:23:56.259Z,15.53
2022-10-12T21:26:27.302Z,14.97
2022-10-12T21:28:55.934Z,15.57
2022-10-12T21:31:29.627Z,13.97
2022-10-12T21:34:02.637Z,13.87
2022-10-12T21:36:32.143Z,13.83
2022-10-12T21:39:00.594Z,13.27
2022-10-12T21:41:31.021Z,12.63
2022-10-12T21:43:59.589Z,14.33
2022-10-12T21:46:31.383Z,13.17
2022-10-12T21:49:01.217Z,12.70
2022-10-12T21:51:31.515Z,13.87
2022-10-12T21:54:00.006Z,13.27
2022-10-12T21:56:30.643Z,14.17
2022-10-12T21:59:00.730Z,14.60
2022-10-12T22:01:34.534Z,13.10
2022-10-12T22:04:05.394Z,13.47
2022-10-12T22:06:34.764Z,13.10
2022-10-12T22:09:06.700Z,12.57
2022-10-12T22:11:36.723Z,11.73
2022-10-12T22:14:10.683Z,13.30
2022-10-12T22:16:43.193Z,15.23
2022-10-12T22:19:15.279Z,13.30
2022-10-12T22:21:43.868Z,12.93
2022-10-12T22:24:12.385Z,13.77
2022-10-12T22:26:41.342Z,13.73
2022-10-12T22:29:10.508Z,13.30
2022-10-12T22:31:41.890Z,14.43
2022-10-12T22:34:11.745Z,14.37
2022-10-12T22:36:40.433Z,13.40
2022-10-12T22:39:09.677Z,13.67
2022-10-12T22:41:38.250Z,12.90
2022-10-12T22:44:07.044Z,13.93
2022-10-12T22:46:35.357Z,13.63
2022-10-12T22:49:05.043Z,14.63
2022-10-12T22:51:35.770Z,14.63
2022-10-12T22:54:04.200Z,13.30
2022-10-12T22:56:33.009Z,13.77
2022-10-12T22:59:06.524Z,14.27
2022-10-12T23:01:35.414Z,16.37
2022-10-12T23:04:05.841Z,15.57
2022-10-12T23:06:34.217Z,15.10
2022-10-12T23:09:02.910Z,15.40
2022-10-12T23:11:31.609Z,18.07
2022-10-12T23:14:00.126Z,15.67
2022-10-12T23:16:32.942Z,15.70
2022-10-12T23:19:04.738Z,16.77
2022-10-12T23:21:35.698Z,17.63
2022-10-12T23:24:05.866Z,15.83
2022-10-12T23:26:34.471Z,15.73
2022-10-12T23:29:03.220Z,15.87
2022-10-12T23:31:32.194Z,16.03
2022-10-12T23:34:04.107Z,17.53
2022-10-12T23:36:35.031Z,16.10
2022-10-12T23:39:05.108Z,16.00
2022-10-12T23:41:33.575Z,16.47
2022-10-12T23:44:01.819Z,15.77
2022-10-12T23:46:30.635Z,17.27
2022-10-12T23:49:00.316Z,17.47
2022-10-12T23:51:28.680Z,16.40
2022-10-12T23:53:58.468Z,17.33
2022-10-12T23:56:27.110Z,17.90
2022-10-12T23:58:55.424Z,18.57
